createdAt,value
2022-11-24T00:03:40.492Z,80.23
2022-11-24T00:08:45.117Z,79.88
2022-11-24T00:13:47.644Z,80.22
2022-11-24T00:18:51.487Z,80.20
2022-11-24T00:23:54.029Z,80.21
2022-11-24T00:29:00.309Z,80.22
2022-11-24T00:34:04.678Z,80.25
2022-11-24T00:39:10.238Z,79.87
2022-11-24T00:44:12.582Z,79.95
2022-11-24T00:49:14.845Z,79.44
2022-11-24T00:54:17.129Z,80.04
2022-11-24T00:59:19.403Z,80.02
2022-11-24T01:04:21.597Z,79.84
2022-11-24T01:09:23.899Z,80.15
2022-11-24T01:14:26.160Z,79.86
2022-11-24T01:19:28.544Z,79.88
2022-11-24T01:24:30.933Z,79.77
2022-11-24T01:29:33.299Z,79.93
2022-11-24T01:34:35.807Z,79.80
2022-11-24T01:39:38.132Z,79.76
2022-11-24T01:44:41.230Z,79.87
2022-11-24T01:49:55.087Z,79.76
2022-11-24T01:55:00.046Z,79.70
2022-11-24T02:00:08.793Z,79.82
2022-11-24T02:05:34.756Z,79.42
2022-11-24T02:10:37.618Z,79.51
2022-11-24T02:15:40.014Z,79.45
2022-11-24T02:20:42.431Z,79.59
2022-11-24T02:26:30.321Z,79.40
2022-11-24T02:31:32.937Z,79.72
2022-11-24T02:36:35.185Z,79.47
2022-11-24T02:41:38.072Z,79.54
2022-11-24T02:46:40.287Z,79.00
2022-11-24T02:51:42.542Z,79.61
2022-11-24T02:56:44.753Z,79.35
2022-11-24T03:01:47.181Z,79.35
2022-11-24T03:06:49.562Z,79.28
2022-11-24T03:11:51.828Z,79.34
2022-11-24T03:16:54.067Z,79.39
2022-11-24T03:21:56.296Z,79.45
2022-11-24T03:26:58.711Z,79.47
2022-11-24T03:32:01.050Z,79.52
2022-11-24T03:37:03.373Z,79.52
2022-11-24T03:42:05.799Z,79.50
2022-11-24T03:47:08.218Z,79.37
2022-11-24T03:52:10.442Z,79.50
2022-11-24T03:57:12.876Z,79.41
2022-11-24T04:02:15.218Z,79.39
2022-11-24T04:07:18.067Z,79.19
2022-11-24T04:12:38.725Z,79.31
2022-11-24T04:17:41.055Z,79.33
2022-11-24T04:22:43.670Z,79.08
2022-11-24T04:27:46.334Z,78.85
2022-11-24T04:32:56.454Z,78.97
2022-11-24T04:38:02.798Z,78.62
2022-11-24T04:43:05.052Z,78.42
2022-11-24T04:48:07.409Z,78.34
2022-11-24T04:53:10.599Z,78.38
2022-11-24T04:58:13.135Z,78.59
2022-11-24T05:03:15.379Z,78.29
2022-11-24T05:08:17.565Z,78.45
2022-11-24T05:13:19.825Z,78.24
2022-11-24T05:18:22.516Z,78.08
2022-11-24T05:23:24.858Z,78.51
2022-11-24T05:28:27.502Z,78.31
2022-11-24T05:33:30.420Z,78.57
2022-11-24T05:38:33.221Z,78.29
2022-11-24T05:43:35.488Z,78.58
2022-11-24T05:48:37.713Z,78.30
2022-11-24T05:53:39.895Z,78.40
2022-11-24T05:58:43.314Z,78.66
2022-11-24T06:03:45.544Z,78.58
2022-11-24T06:08:47.892Z,78.61
2022-11-24T06:13:50.180Z,78.37
2022-11-24T06:18:52.568Z,78.59
2022-11-24T06:23:54.855Z,78.20
2022-11-24T06:28:57.259Z,78.46
2022-11-24T06:34:00.077Z,78.37
2022-11-24T06:39:02.969Z,78.90
2022-11-24T06:44:05.601Z,78.48
2022-11-24T06:49:08.024Z,78.25
2022-11-24T06:54:14.613Z,78.40
2022-11-24T06:59:20.966Z,78.38
2022-11-24T07:04:23.244Z,78.13
2022-11-24T07:09:25.405Z,77.98
2022-11-24T07:14:27.533Z,78.10
2022-11-24T07:19:29.755Z,78.05
2022-11-24T07:24:32.097Z,78.05
2022-11-24T07:29:37.562Z,78.00
2022-11-24T07:34:39.920Z,78.06
2022-11-24T07:39:42.388Z,78.22
2022-11-24T07:44:44.696Z,78.20
2022-11-24T07:49:46.856Z,78.10
2022-11-24T07:54:49.056Z,78.22
2022-11-24T07:59:51.253Z,78.11
2022-11-24T08:04:53.464Z,77.93
2022-11-24T08:09:55.732Z,77.79
2022-11-24T08:14:58.107Z,77.82
2022-11-24T08:20:00.306Z,78.29
2022-11-24T08:25:02.559Z,77.80
2022-11-24T08:30:05.614Z,78.03
2022-11-24T08:35:13.777Z,77.89
2022-11-24T08:40:17.163Z,77.88
2022-11-24T08:45:21.422Z,77.81
2022-11-24T08:50:25.670Z,77.72
2022-11-24T08:55:27.873Z,77.94
2022-11-24T09:00:33.270Z,78.16
2022-11-24T09:05:52.608Z,77.82
2022-11-24T09:11:00.360Z,77.63
2022-11-24T09:16:04.807Z,77.90
2022-11-24T09:21:19.000Z,77.33
2022-11-24T09:26:23.938Z,77.85
2022-11-24T09:31:29.765Z,77.71
2022-11-24T09:36:32.351Z,78.16
2022-11-24T09:41:50.909Z,77.45
2022-11-24T09:47:29.764Z,77.89
2022-11-24T09:52:42.124Z,77.74
2022-11-24T09:57:44.644Z,77.64
2022-11-24T10:02:49.627Z,77.41
2022-11-24T10:08:22.298Z,77.86
2022-11-24T10:13:41.525Z,77.65
2022-11-24T10:19:02.029Z,77.56
2022-11-24T10:24:16.332Z,77.77
2022-11-24T10:29:41.279Z,77.68
2022-11-24T10:34:50.822Z,77.80
2022-11-24T10:40:40.651Z,77.70
2022-11-24T10:45:40.750Z,77.67
2022-11-24T10:50:43.443Z,77.52
2022-11-24T10:55:55.103Z,77.79
2022-11-24T11:01:03.423Z,77.98
2022-11-24T11:06:14.150Z,77.81
2022-11-24T11:11:22.027Z,77.56
2022-11-24T11:16:27.296Z,77.75
2022-11-24T11:21:34.681Z,77.70
2022-11-24T11:26:38.880Z,77.91
2022-11-24T11:31:41.397Z,77.76
2022-11-24T11:36:48.558Z,77.75
2022-11-24T11:41:56.407Z,77.62
2022-11-24T11:46:59.586Z,77.60
2022-11-24T11:52:17.024Z,77.80
2022-11-24T11:57:31.799Z,77.64
2022-11-24T12:02:39.448Z,77.90
2022-11-24T12:07:58.440Z,77.94
2022-11-24T12:13:14.142Z,77.98
2022-11-24T12:18:59.130Z,77.69
2022-11-24T12:24:13.593Z,78.07
2022-11-24T12:29:31.101Z,77.95
2022-11-24T12:34:52.949Z,78.08
2022-11-24T12:40:13.358Z,78.16
2022-11-24T12:45:17.897Z,77.86
2022-11-24T12:50:22.909Z,77.57
2022-11-24T12:55:28.161Z,77.97
2022-11-24T13:00:53.637Z,77.92
2022-11-24T13:06:11.221Z,78.29
2022-11-24T13:11:22.669Z,78.06
2022-11-24T13:16:36.089Z,77.85
2022-11-24T13:21:43.214Z,78.08
2022-11-24T13:27:13.045Z,78.13
2022-11-24T13:32:15.429Z,78.21
2022-11-24T13:37:33.615Z,78.10
2022-11-24T13:43:01.608Z,77.85
2022-11-24T13:48:24.030Z,77.85
2022-11-24T13:53:56.045Z,77.53
2022-11-24T13:59:15.821Z,77.81
2022-11-24T14:04:30.573Z,77.97
2022-11-24T14:09:36.618Z,78.06
2022-11-24T14:14:39.086Z,78.08
2022-11-24T14:19:42.785Z,77.89
2022-11-24T14:24:47.040Z,77.48
2022-11-24T14:29:58.089Z,77.69
2022-11-24T14:35:00.315Z,77.68
2022-11-24T14:40:02.608Z,77.74
2022-11-24T14:45:05.525Z,77.54
2022-11-24T14:50:19.588Z,77.51
2022-11-24T14:55:30.035Z,77.59
2022-11-24T15:00:33.084Z,77.22
2022-11-24T15:05:56.323Z,77.11
2022-11-24T15:11:02.804Z,77.29
2022-11-24T15:16:19.668Z,77.32
2022-11-24T15:21:35.758Z,77.42
2022-11-24T15:26:41.984Z,77.42
2022-11-24T15:31:49.345Z,77.15
2022-11-24T15:36:54.542Z,77.04
2022-11-24T15:41:56.790Z,77.23
2022-11-24T15:46:59.100Z,77.14
2022-11-24T15:52:01.445Z,77.25
2022-11-24T15:57:03.920Z,77.17
2022-11-24T16:02:06.242Z,77.02
2022-11-24T16:07:15.088Z,76.88
2022-11-24T16:12:17.546Z,77.27
2022-11-24T16:17:20.041Z,77.19
2022-11-24T16:22:22.365Z,76.95
2022-11-24T16:27:24.732Z,76.93
2022-11-24T16:32:27.077Z,76.95
2022-11-24T16:37:29.465Z,77.12
2022-11-24T16:42:32.038Z,76.94
2022-11-24T16:47:39.686Z,76.90
2022-11-24T16:52:41.836Z,76.79
2022-11-24T16:57:44.102Z,77.00
2022-11-24T17:02:52.597Z,76.95
2022-11-24T17:07:55.805Z,76.70
2022-11-24T17:12:58.027Z,76.88
2022-11-24T17:23:22.557Z,76.90
2022-11-24T17:28:24.801Z,76.49
2022-11-24T17:33:28.607Z,76.67
2022-11-24T17:38:31.490Z,76.99
2022-11-24T17:43:33.780Z,76.97
2022-11-24T17:48:36.253Z,76.86
2022-11-24T17:53:39.398Z,76.81
2022-11-24T17:58:43.301Z,76.77
2022-11-24T18:03:48.979Z,76.85
2022-11-24T18:08:57.352Z,76.90
2022-11-24T18:14:02.407Z,76.96
2022-11-24T18:19:10.174Z,76.94
2022-11-24T18:24:14.117Z,76.44
2022-11-24T18:29:16.370Z,77.04
2022-11-24T18:34:19.151Z,76.50
2022-11-24T18:39:22.437Z,76.63
2022-11-24T18:44:24.656Z,76.58
2022-11-24T18:49:26.992Z,76.70
2022-11-24T18:54:29.402Z,76.69
2022-11-24T18:59:31.898Z,76.77
2022-11-24T19:04:34.394Z,76.33
2022-11-24T19:09:37.040Z,76.46
2022-11-24T19:14:39.202Z,76.46
2022-11-24T19:19:41.378Z,76.64
2022-11-24T19:24:45.407Z,76.45
2022-11-24T19:29:48.617Z,76.40
2022-11-24T19:34:50.807Z,76.41
2022-11-24T19:39:53.240Z,76.35
2022-11-24T19:44:56.792Z,76.41
2022-11-24T19:49:59.179Z,76.42
2022-11-24T19:55:02.366Z,76.45
2022-11-24T20:00:07.531Z,76.23
2022-11-24T20:05:09.723Z,76.42
2022-11-24T20:10:11.944Z,76.46
2022-11-24T20:15:15.278Z,76.68
2022-11-24T20:20:17.532Z,76.32
2022-11-24T20:25:20.514Z,76.47
2022-11-24T20:30:22.789Z,76.66
2022-11-24T20:35:24.968Z,76.46
2022-11-24T20:40:27.676Z,76.84
2022-11-24T20:45:30.130Z,76.56
2022-11-24T20:50:32.377Z,76.63
2022-11-24T20:55:34.865Z,76.77
2022-11-24T21:00:37.116Z,76.64
2022-11-24T21:05:39.426Z,76.65
2022-11-24T21:10:41.651Z,76.78
2022-11-24T21:15:44.013Z,76.68
2022-11-24T21:20:46.628Z,76.53
2022-11-24T21:25:48.813Z,76.84
2022-11-24T21:30:50.995Z,76.81
2022-11-24T21:35:53.294Z,76.77
2022-11-24T21:41:00.441Z,76.48
2022-11-24T21:46:04.397Z,76.72
2022-11-24T21:51:11.402Z,76.77
2022-11-24T21:56:16.287Z,76.39
2022-11-24T22:01:20.290Z,76.76
2022-11-24T22:06:23.147Z,76.72
2022-11-24T22:11:26.092Z,76.69
2022-11-24T22:16:28.564Z,76.79
2022-11-24T22:21:31.026Z,76.89
2022-11-24T22:26:33.407Z,76.75
2022-11-24T22:31:35.694Z,76.84
2022-11-24T22:36:38.040Z,76.84
2022-11-24T22:41:40.199Z,76.85
2022-11-24T22:46:42.396Z,76.81
2022-11-24T22:51:44.576Z,76.65
2022-11-24T22:56:46.868Z,76.88
2022-11-24T23:01:49.171Z,76.51
2022-11-24T23:06:51.507Z,76.78
2022-11-24T23:11:53.682Z,76.74
2022-11-24T23:16:56.053Z,76.61
2022-11-24T23:21:58.255Z,76.67
2022-11-24T23:27:00.510Z,76.82
2022-11-24T23:32:02.998Z,76.69
2022-11-24T23:37:05.307Z,76.78
2022-11-24T23:42:07.702Z,76.67
2022-11-24T23:47:09.915Z,76.57
2022-11-24T23:52:12.078Z,76.63
2022-11-24T23:57:14.264Z,76.93
